sensor_id;sensor_type;location;lat;lon;timestamp;temperature;humidity
23991;DHT22;12205;50.600;4.608;2023-06-19T00:00:45;19.90;99.90
23991;DHT22;12205;50.600;4.608;2023-06-19T00:03:12;19.80;99.90
23991;DHT22;12205;50.600;4.608;2023-06-19T00:05:40;19.80;99.90
23991;DHT22;12205;50.600;4.608;2023-06-19T00:08:07;19.80;99.90
23991;DHT22;12205;50.600;4.608;2023-06-19T00:10:34;19.70;99.90
23991;DHT22;12205;50.600;4.608;2023-06-19T00:13:02;19.60;99.90
23991;DHT22;12205;50.600;4.608;2023-06-19T00:15:29;19.60;99.90
23991;DHT22;12205;50.600;4.608;2023-06-19T00:17:56;19.60;99.90
23991;DHT22;12205;50.600;4.608;2023-06-19T00:20:24;19.60;99.90
23991;DHT22;12205;50.600;4.608;2023-06-19T00:22:51;19.50;99.90
23991;DHT22;12205;50.600;4.608;2023-06-19T00:25:18;19.50;99.90
23991;DHT22;12205;50.600;4.608;2023-06-19T00:27:46;19.40;99.90
23991;DHT22;12205;50.600;4.608;2023-06-19T00:30:15;19.40;99.90
23991;DHT22;12205;50.600;4.608;2023-06-19T00:32:42;19.40;99.90
23991;DHT22;12205;50.600;4.608;2023-06-19T00:35:13;19.30;99.90
23991;DHT22;12205;50.600;4.608;2023-06-19T00:37:42;19.30;99.90
23991;DHT22;12205;50.600;4.608;2023-06-19T00:40:15;19.20;99.90
23991;DHT22;12205;50.600;4.608;2023-06-19T00:42:46;19.20;99.90
23991;DHT22;12205;50.600;4.608;2023-06-19T00:45:15;19.00;99.90
23991;DHT22;12205;50.600;4.608;2023-06-19T00:47:42;19.10;99.90
23991;DHT22;12205;50.600;4.608;2023-06-19T00:50:10;19.10;99.90
23991;DHT22;12205;50.600;4.608;2023-06-19T00:52:38;19.00;99.90
23991;DHT22;12205;50.600;4.608;2023-06-19T00:55:07;19.00;99.90
23991;DHT22;12205;50.600;4.608;2023-06-19T00:57:36;19.10;99.90
23991;DHT22;12205;50.600;4.608;2023-06-19T01:00:06;19.10;99.90
23991;DHT22;12205;50.600;4.608;2023-06-19T01:02:35;19.00;99.90
23991;DHT22;12205;50.600;4.608;2023-06-19T01:05:02;19.00;99.90
23991;DHT22;12205;50.600;4.608;2023-06-19T01:07:36;19.00;99.90
23991;DHT22;12205;50.600;4.608;2023-06-19T01:10:13;19.10;99.90
23991;DHT22;12205;50.600;4.608;2023-06-19T01:12:46;19.00;99.90
23991;DHT22;12205;50.600;4.608;2023-06-19T01:15:20;19.10;99.90
23991;DHT22;12205;50.600;4.608;2023-06-19T01:17:51;19.00;99.90
23991;DHT22;12205;50.600;4.608;2023-06-19T01:20:22;19.00;99.90
23991;DHT22;12205;50.600;4.608;2023-06-19T01:22:51;18.90;99.90
23991;DHT22;12205;50.600;4.608;2023-06-19T01:25:22;18.90;99.90
23991;DHT22;12205;50.600;4.608;2023-06-19T01:27:50;18.90;99.90
23991;DHT22;12205;50.600;4.608;2023-06-19T01:30:18;18.90;99.90
23991;DHT22;12205;50.600;4.608;2023-06-19T01:32:50;19.00;99.90
23991;DHT22;12205;50.600;4.608;2023-06-19T01:35:27;19.00;99.90
23991;DHT22;12205;50.600;4.608;2023-06-19T01:37:59;19.10;99.90
23991;DHT22;12205;50.600;4.608;2023-06-19T01:40:29;19.10;99.90
23991;DHT22;12205;50.600;4.608;2023-06-19T01:42:58;19.10;99.90
23991;DHT22;12205;50.600;4.608;2023-06-19T01:45:29;19.10;99.90
23991;DHT22;12205;50.600;4.608;2023-06-19T01:47:59;19.00;99.90
23991;DHT22;12205;50.600;4.608;2023-06-19T01:50:26;19.00;99.90
23991;DHT22;12205;50.600;4.608;2023-06-19T01:52:54;19.00;99.90
23991;DHT22;12205;50.600;4.608;2023-06-19T01:55:23;19.00;99.90
23991;DHT22;12205;50.600;4.608;2023-06-19T01:57:50;19.10;99.90
23991;DHT22;12205;50.600;4.608;2023-06-19T02:00:18;19.10;99.90
23991;DHT22;12205;50.600;4.608;2023-06-19T02:02:45;19.10;99.90
23991;DHT22;12205;50.600;4.608;2023-06-19T02:05:13;19.10;99.90
23991;DHT22;12205;50.600;4.608;2023-06-19T02:07:41;19.10;99.90
23991;DHT22;12205;50.600;4.608;2023-06-19T02:10:08;19.10;99.90
23991;DHT22;12205;50.600;4.608;2023-06-19T02:12:38;19.10;99.90
23991;DHT22;12205;50.600;4.608;2023-06-19T02:15:06;19.20;99.90
23991;DHT22;12205;50.600;4.608;2023-06-19T02:17:34;19.20;99.90
23991;DHT22;12205;50.600;4.608;2023-06-19T02:20:03;19.30;99.90
23991;DHT22;12205;50.600;4.608;2023-06-19T02:22:33;19.20;99.90
23991;DHT22;12205;50.600;4.608;2023-06-19T02:25:00;19.20;99.90
23991;DHT22;12205;50.600;4.608;2023-06-19T02:27:27;19.30;99.90
23991;DHT22;12205;50.600;4.608;2023-06-19T02:29:56;19.30;99.90
23991;DHT22;12205;50.600;4.608;2023-06-19T02:32:23;19.40;99.90
23991;DHT22;12205;50.600;4.608;2023-06-19T02:34:50;19.40;99.90
23991;DHT22;12205;50.600;4.608;2023-06-19T02:37:17;19.40;99.90
23991;DHT22;12205;50.600;4.608;2023-06-19T02:39:44;19.30;99.90
23991;DHT22;12205;50.600;4.608;2023-06-19T02:42:14;19.30;99.90
23991;DHT22;12205;50.600;4.608;2023-06-19T02:44:42;19.40;99.90
23991;DHT22;12205;50.600;4.608;2023-06-19T02:47:10;19.40;99.90
23991;DHT22;12205;50.600;4.608;2023-06-19T02:49:38;19.40;99.90
23991;DHT22;12205;50.600;4.608;2023-06-19T02:52:06;19.40;99.90
23991;DHT22;12205;50.600;4.608;2023-06-19T02:54:34;19.50;99.90
23991;DHT22;12205;50.600;4.608;2023-06-19T02:57:01;19.50;99.90
23991;DHT22;12205;50.600;4.608;2023-06-19T02:59:28;19.40;99.90
23991;DHT22;12205;50.600;4.608;2023-06-19T03:01:55;19.40;99.90
23991;DHT22;12205;50.600;4.608;2023-06-19T03:04:23;19.40;99.90
23991;DHT22;12205;50.600;4.608;2023-06-19T03:06:53;19.40;99.90
23991;DHT22;12205;50.600;4.608;2023-06-19T03:09:20;19.50;99.90
23991;DHT22;12205;50.600;4.608;2023-06-19T03:11:47;19.50;99.90
23991;DHT22;12205;50.600;4.608;2023-06-19T03:14:14;19.50;99.90
23991;DHT22;12205;50.600;4.608;2023-06-19T03:16:41;19.40;99.90
23991;DHT22;12205;50.600;4.608;2023-06-19T03:19:08;19.30;99.90
23991;DHT22;12205;50.600;4.608;2023-06-19T03:21:37;19.10;99.90
23991;DHT22;12205;50.600;4.608;2023-06-19T03:24:04;19.00;99.90
23991;DHT22;12205;50.600;4.608;2023-06-19T03:26:33;18.90;99.90
23991;DHT22;12205;50.600;4.608;2023-06-19T03:29:01;18.80;99.90
23991;DHT22;12205;50.600;4.608;2023-06-19T03:31:39;18.80;99.90
23991;DHT22;12205;50.600;4.608;2023-06-19T03:34:07;18.80;99.90
23991;DHT22;12205;50.600;4.608;2023-06-19T03:36:38;18.80;99.90
23991;DHT22;12205;50.600;4.608;2023-06-19T03:39:08;18.70;99.90
23991;DHT22;12205;50.600;4.608;2023-06-19T03:41:36;18.70;99.90
23991;DHT22;12205;50.600;4.608;2023-06-19T03:44:04;18.70;99.90
23991;DHT22;12205;50.600;4.608;2023-06-19T03:46:31;18.70;99.90
23991;DHT22;12205;50.600;4.608;2023-06-19T03:48:58;18.60;99.90
23991;DHT22;12205;50.600;4.608;2023-06-19T03:51:27;18.50;99.90
23991;DHT22;12205;50.600;4.608;2023-06-19T03:53:56;18.30;99.90
23991;DHT22;12205;50.600;4.608;2023-06-19T03:56:23;18.20;99.90
23991;DHT22;12205;50.600;4.608;2023-06-19T03:58:51;18.20;99.90
23991;DHT22;12205;50.600;4.608;2023-06-19T04:01:18;18.00;99.90
23991;DHT22;12205;50.600;4.608;2023-06-19T04:03:45;18.10;99.90
23991;DHT22;12205;50.600;4.608;2023-06-19T04:06:12;18.00;99.90
23991;DHT22;12205;50.600;4.608;2023-06-19T04:08:39;18.00;99.90
23991;DHT22;12205;50.600;4.608;2023-06-19T04:11:07;18.10;99.90
23991;DHT22;12205;50.600;4.608;2023-06-19T04:13:34;18.00;99.90
23991;DHT22;12205;50.600;4.608;2023-06-19T04:16:02;18.00;99.90
23991;DHT22;12205;50.600;4.608;2023-06-19T04:18:29;18.00;99.90
23991;DHT22;12205;50.600;4.608;2023-06-19T04:20:56;18.10;99.90
23991;DHT22;12205;50.600;4.608;2023-06-19T04:23:23;18.00;99.90
23991;DHT22;12205;50.600;4.608;2023-06-19T04:25:50;18.00;99.90
23991;DHT22;12205;50.600;4.608;2023-06-19T04:28:19;18.00;99.90
23991;DHT22;12205;50.600;4.608;2023-06-19T04:30:46;18.10;99.90
23991;DHT22;12205;50.600;4.608;2023-06-19T04:33:13;18.10;99.90
23991;DHT22;12205;50.600;4.608;2023-06-19T04:35:40;18.00;99.90
23991;DHT22;12205;50.600;4.608;2023-06-19T04:38:08;18.10;99.90
23991;DHT22;12205;50.600;4.608;2023-06-19T04:40:40;18.20;99.90
23991;DHT22;12205;50.600;4.608;2023-06-19T04:43:08;18.20;99.90
23991;DHT22;12205;50.600;4.608;2023-06-19T04:45:37;18.20;99.90
23991;DHT22;12205;50.600;4.608;2023-06-19T04:48:04;18.30;99.90
23991;DHT22;12205;50.600;4.608;2023-06-19T04:50:31;18.30;99.90
23991;DHT22;12205;50.600;4.608;2023-06-19T04:52:58;18.50;99.90
23991;DHT22;12205;50.600;4.608;2023-06-19T04:55:26;18.50;99.90
23991;DHT22;12205;50.600;4.608;2023-06-19T04:57:53;18.60;99.90
23991;DHT22;12205;50.600;4.608;2023-06-19T05:00:20;18.70;99.90
23991;DHT22;12205;50.600;4.608;2023-06-19T05:02:50;18.60;99.90
23991;DHT22;12205;50.600;4.608;2023-06-19T05:05:17;18.60;99.90
23991;DHT22;12205;50.600;4.608;2023-06-19T05:07:45;18.60;99.90
23991;DHT22;12205;50.600;4.608;2023-06-19T05:10:12;18.60;99.90
23991;DHT22;12205;50.600;4.608;2023-06-19T05:12:39;18.60;99.90
23991;DHT22;12205;50.600;4.608;2023-06-19T05:15:07;18.60;99.90
23991;DHT22;12205;50.600;4.608;2023-06-19T05:17:35;18.60;99.90
23991;DHT22;12205;50.600;4.608;2023-06-19T05:20:06;18.50;99.90
23991;DHT22;12205;50.600;4.608;2023-06-19T05:22:34;18.50;99.90
23991;DHT22;12205;50.600;4.608;2023-06-19T05:25:02;18.50;99.90
23991;DHT22;12205;50.600;4.608;2023-06-19T05:27:30;18.50;99.90
23991;DHT22;12205;50.600;4.608;2023-06-19T05:29:57;18.60;99.90
23991;DHT22;12205;50.600;4.608;2023-06-19T05:32:24;18.60;99.90
23991;DHT22;12205;50.600;4.608;2023-06-19T05:34:51;18.60;99.90
23991;DHT22;12205;50.600;4.608;2023-06-19T05:37:19;18.60;99.90
23991;DHT22;12205;50.600;4.608;2023-06-19T05:39:47;18.60;99.90
23991;DHT22;12205;50.600;4.608;2023-06-19T05:42:14;18.50;99.90
23991;DHT22;12205;50.600;4.608;2023-06-19T05:44:41;18.60;99.90
23991;DHT22;12205;50.600;4.608;2023-06-19T05:47:08;18.50;99.90
23991;DHT22;12205;50.600;4.608;2023-06-19T05:49:36;18.50;99.90
23991;DHT22;12205;50.600;4.608;2023-06-19T05:52:03;18.60;99.90
23991;DHT22;12205;50.600;4.608;2023-06-19T05:54:32;18.60;99.90
23991;DHT22;12205;50.600;4.608;2023-06-19T05:56:59;18.50;99.90
23991;DHT22;12205;50.600;4.608;2023-06-19T05:59:26;18.50;99.90
23991;DHT22;12205;50.600;4.608;2023-06-19T06:01:53;18.60;99.90
23991;DHT22;12205;50.600;4.608;2023-06-19T06:04:21;18.80;99.90
23991;DHT22;12205;50.600;4.608;2023-06-19T06:06:48;18.90;99.90
23991;DHT22;12205;50.600;4.608;2023-06-19T06:09:15;19.00;99.90
23991;DHT22;12205;50.600;4.608;2023-06-19T06:11:44;19.20;99.90
23991;DHT22;12205;50.600;4.608;2023-06-19T06:14:11;19.20;99.90
23991;DHT22;12205;50.600;4.608;2023-06-19T06:16:38;19.30;99.90
23991;DHT22;12205;50.600;4.608;2023-06-19T06:19:06;19.20;99.90
23991;DHT22;12205;50.600;4.608;2023-06-19T06:21:33;19.20;99.90
23991;DHT22;12205;50.600;4.608;2023-06-19T06:24:00;19.20;99.90
23991;DHT22;12205;50.600;4.608;2023-06-19T06:26:28;19.20;99.90
23991;DHT22;12205;50.600;4.608;2023-06-19T06:28:56;19.20;99.90
23991;DHT22;12205;50.600;4.608;2023-06-19T06:31:23;19.20;99.90
23991;DHT22;12205;50.600;4.608;2023-06-19T06:33:50;19.10;99.90
23991;DHT22;12205;50.600;4.608;2023-06-19T06:36:17;19.20;99.90
23991;DHT22;12205;50.600;4.608;2023-06-19T06:38:45;19.30;99.90
23991;DHT22;12205;50.600;4.608;2023-06-19T06:41:12;19.20;99.90
23991;DHT22;12205;50.600;4.608;2023-06-19T06:43:40;19.20;99.90
23991;DHT22;12205;50.600;4.608;2023-06-19T06:46:10;19.20;99.90
23991;DHT22;12205;50.600;4.608;2023-06-19T06:48:37;19.20;99.90
23991;DHT22;12205;50.600;4.608;2023-06-19T06:51:05;19.20;99.90
23991;DHT22;12205;50.600;4.608;2023-06-19T06:53:32;19.30;99.90
23991;DHT22;12205;50.600;4.608;2023-06-19T06:55:59;19.20;99.90
23991;DHT22;12205;50.600;4.608;2023-06-19T06:58:27;19.30;99.90
23991;DHT22;12205;50.600;4.608;2023-06-19T07:00:54;19.40;99.90
23991;DHT22;12205;50.600;4.608;2023-06-19T07:03:23;19.40;99.90
23991;DHT22;12205;50.600;4.608;2023-06-19T07:05:50;19.50;99.90
23991;DHT22;12205;50.600;4.608;2023-06-19T07:08:18;19.50;99.90
23991;DHT22;12205;50.600;4.608;2023-06-19T07:10:45;19.70;99.90
23991;DHT22;12205;50.600;4.608;2023-06-19T07:13:12;19.70;99.90
23991;DHT22;12205;50.600;4.608;2023-06-19T07:15:39;19.80;99.90
23991;DHT22;12205;50.600;4.608;2023-06-19T07:18:07;19.90;99.90
23991;DHT22;12205;50.600;4.608;2023-06-19T07:20:35;20.00;99.90
23991;DHT22;12205;50.600;4.608;2023-06-19T07:23:02;19.90;99.90
23991;DHT22;12205;50.600;4.608;2023-06-19T07:25:30;20.00;99.90
23991;DHT22;12205;50.600;4.608;2023-06-19T07:27:59;20.00;99.90
23991;DHT22;12205;50.600;4.608;2023-06-19T07:30:27;20.00;99.90
23991;DHT22;12205;50.600;4.608;2023-06-19T07:32:54;20.00;99.90
23991;DHT22;12205;50.600;4.608;2023-06-19T07:35:21;20.20;99.90
23991;DHT22;12205;50.600;4.608;2023-06-19T07:37:49;20.40;99.90
23991;DHT22;12205;50.600;4.608;2023-06-19T07:40:16;20.50;99.90
23991;DHT22;12205;50.600;4.608;2023-06-19T07:42:43;20.70;99.90
23991;DHT22;12205;50.600;4.608;2023-06-19T07:45:12;20.70;99.90
23991;DHT22;12205;50.600;4.608;2023-06-19T07:47:39;20.80;99.90
23991;DHT22;12205;50.600;4.608;2023-06-19T07:50:07;20.70;99.90
23991;DHT22;12205;50.600;4.608;2023-06-19T07:52:35;20.70;99.90
23991;DHT22;12205;50.600;4.608;2023-06-19T07:55:04;20.70;99.90
23991;DHT22;12205;50.600;4.608;2023-06-19T07:57:32;20.90;99.90
23991;DHT22;12205;50.600;4.608;2023-06-19T08:00:00;21.10;99.90
23991;DHT22;12205;50.600;4.608;2023-06-19T08:02:37;21.10;99.90
23991;DHT22;12205;50.600;4.608;2023-06-19T08:05:04;21.10;99.90
23991;DHT22;12205;50.600;4.608;2023-06-19T08:07:33;21.20;99.90
23991;DHT22;12205;50.600;4.608;2023-06-19T08:10:01;21.20;99.90
23991;DHT22;12205;50.600;4.608;2023-06-19T08:12:31;21.30;99.90
23991;DHT22;12205;50.600;4.608;2023-06-19T08:14:58;21.30;99.90
23991;DHT22;12205;50.600;4.608;2023-06-19T08:17:25;21.20;99.90
23991;DHT22;12205;50.600;4.608;2023-06-19T08:19:52;21.20;99.90
23991;DHT22;12205;50.600;4.608;2023-06-19T08:22:19;21.30;99.90
23991;DHT22;12205;50.600;4.608;2023-06-19T08:24:47;21.30;99.90
23991;DHT22;12205;50.600;4.608;2023-06-19T08:27:14;21.30;99.90
23991;DHT22;12205;50.600;4.608;2023-06-19T08:29:43;21.20;99.90
23991;DHT22;12205;50.600;4.608;2023-06-19T08:32:10;21.20;99.90
23991;DHT22;12205;50.600;4.608;2023-06-19T08:34:37;21.30;99.90
23991;DHT22;12205;50.600;4.608;2023-06-19T08:37:05;21.30;99.90
23991;DHT22;12205;50.600;4.608;2023-06-19T08:39:32;21.10;99.90
23991;DHT22;12205;50.600;4.608;2023-06-19T08:41:59;21.20;99.90
23991;DHT22;12205;50.600;4.608;2023-06-19T08:44:26;21.20;99.90
23991;DHT22;12205;50.600;4.608;2023-06-19T08:46:55;21.10;99.90
23991;DHT22;12205;50.600;4.608;2023-06-19T08:49:24;21.10;99.90
23991;DHT22;12205;50.600;4.608;2023-06-19T08:51:51;21.10;99.90
23991;DHT22;12205;50.600;4.608;2023-06-19T08:54:18;21.20;99.90
23991;DHT22;12205;50.600;4.608;2023-06-19T08:56:47;21.30;99.90
23991;DHT22;12205;50.600;4.608;2023-06-19T08:59:15;21.30;99.90
23991;DHT22;12205;50.600;4.608;2023-06-19T09:01:47;21.30;99.90
23991;DHT22;12205;50.600;4.608;2023-06-19T09:04:19;21.40;99.90
23991;DHT22;12205;50.600;4.608;2023-06-19T09:06:48;21.50;99.90
23991;DHT22;12205;50.600;4.608;2023-06-19T09:09:16;21.80;99.90
23991;DHT22;12205;50.600;4.608;2023-06-19T09:11:59;22.00;99.90
23991;DHT22;12205;50.600;4.608;2023-06-19T09:14:37;22.10;99.90
23991;DHT22;12205;50.600;4.608;2023-06-19T09:17:07;22.20;99.90
23991;DHT22;12205;50.600;4.608;2023-06-19T09:19:37;22.30;99.90
23991;DHT22;12205;50.600;4.608;2023-06-19T09:22:13;22.40;99.90
23991;DHT22;12205;50.600;4.608;2023-06-19T09:24:41;22.50;99.90
23991;DHT22;12205;50.600;4.608;2023-06-19T09:27:09;22.50;99.90
23991;DHT22;12205;50.600;4.608;2023-06-19T09:29:39;22.70;99.90
23991;DHT22;12205;50.600;4.608;2023-06-19T09:32:17;22.90;99.90
23991;DHT22;12205;50.600;4.608;2023-06-19T09:34:49;23.10;99.90
23991;DHT22;12205;50.600;4.608;2023-06-19T09:37:18;23.20;99.90
23991;DHT22;12205;50.600;4.608;2023-06-19T09:39:52;23.40;99.90
23991;DHT22;12205;50.600;4.608;2023-06-19T09:42:24;23.60;99.90
23991;DHT22;12205;50.600;4.608;2023-06-19T09:44:58;23.60;99.90
23991;DHT22;12205;50.600;4.608;2023-06-19T09:47:31;23.90;99.90
23991;DHT22;12205;50.600;4.608;2023-06-19T09:50:02;24.10;99.90
23991;DHT22;12205;50.600;4.608;2023-06-19T09:52:32;24.40;99.90
23991;DHT22;12205;50.600;4.608;2023-06-19T09:55:10;24.60;99.90
23991;DHT22;12205;50.600;4.608;2023-06-19T09:57:39;24.70;99.90
23991;DHT22;12205;50.600;4.608;2023-06-19T10:00:09;24.80;99.90
23991;DHT22;12205;50.600;4.608;2023-06-19T10:02:39;24.80;99.90
23991;DHT22;12205;50.600;4.608;2023-06-19T10:05:09;25.00;99.90
23991;DHT22;12205;50.600;4.608;2023-06-19T10:07:40;24.80;99.90
23991;DHT22;12205;50.600;4.608;2023-06-19T10:10:10;24.50;99.90
23991;DHT22;12205;50.600;4.608;2023-06-19T10:12:39;24.40;99.90
23991;DHT22;12205;50.600;4.608;2023-06-19T10:15:13;24.20;99.90
23991;DHT22;12205;50.600;4.608;2023-06-19T10:17:45;24.30;99.90
23991;DHT22;12205;50.600;4.608;2023-06-19T10:20:25;24.40;99.90
23991;DHT22;12205;50.600;4.608;2023-06-19T10:22:59;24.50;99.90
23991;DHT22;12205;50.600;4.608;2023-06-19T10:25:30;24.60;99.90
23991;DHT22;12205;50.600;4.608;2023-06-19T10:27:58;24.70;99.90
23991;DHT22;12205;50.600;4.608;2023-06-19T10:30:26;24.60;99.90
23991;DHT22;12205;50.600;4.608;2023-06-19T10:32:55;24.70;99.90
23991;DHT22;12205;50.600;4.608;2023-06-19T10:35:23;24.80;99.90
23991;DHT22;12205;50.600;4.608;2023-06-19T10:37:51;24.80;99.90
23991;DHT22;12205;50.600;4.608;2023-06-19T10:40:18;24.70;99.90
23991;DHT22;12205;50.600;4.608;2023-06-19T10:42:46;24.80;99.90
23991;DHT22;12205;50.600;4.608;2023-06-19T10:45:14;25.00;99.90
23991;DHT22;12205;50.600;4.608;2023-06-19T10:47:46;25.10;99.90
23991;DHT22;12205;50.600;4.608;2023-06-19T10:50:14;25.00;99.90
23991;DHT22;12205;50.600;4.608;2023-06-19T10:52:44;25.00;99.90
23991;DHT22;12205;50.600;4.608;2023-06-19T10:55:13;25.00;99.90
23991;DHT22;12205;50.600;4.608;2023-06-19T10:57:44;25.00;99.90
23991;DHT22;12205;50.600;4.608;2023-06-19T11:00:21;25.10;99.90
23991;DHT22;12205;50.600;4.608;2023-06-19T11:02:49;25.00;99.90
23991;DHT22;12205;50.600;4.608;2023-06-19T11:05:19;25.00;99.90
23991;DHT22;12205;50.600;4.608;2023-06-19T11:07:52;25.10;99.90
23991;DHT22;12205;50.600;4.608;2023-06-19T11:10:22;25.10;99.90
23991;DHT22;12205;50.600;4.608;2023-06-19T11:12:52;25.10;99.90
23991;DHT22;12205;50.600;4.608;2023-06-19T11:15:28;25.30;99.90
23991;DHT22;12205;50.600;4.608;2023-06-19T11:17:56;25.40;99.90
23991;DHT22;12205;50.600;4.608;2023-06-19T11:20:23;25.50;99.90
23991;DHT22;12205;50.600;4.608;2023-06-19T11:22:57;25.70;99.90
23991;DHT22;12205;50.600;4.608;2023-06-19T11:25:35;26.00;99.90
23991;DHT22;12205;50.600;4.608;2023-06-19T11:28:03;26.10;99.90
23991;DHT22;12205;50.600;4.608;2023-06-19T11:30:31;26.20;99.90
23991;DHT22;12205;50.600;4.608;2023-06-19T11:32:59;26.50;99.90
23991;DHT22;12205;50.600;4.608;2023-06-19T11:35:33;26.90;99.90
23991;DHT22;12205;50.600;4.608;2023-06-19T11:38:07;27.30;99.90
23991;DHT22;12205;50.600;4.608;2023-06-19T11:40:40;27.50;99.90
23991;DHT22;12205;50.600;4.608;2023-06-19T11:43:08;27.80;99.90
23991;DHT22;12205;50.600;4.608;2023-06-19T11:45:48;28.00;99.90
23991;DHT22;12205;50.600;4.608;2023-06-19T11:48:22;28.40;99.90
23991;DHT22;12205;50.600;4.608;2023-06-19T11:50:50;28.80;99.90
23991;DHT22;12205;50.600;4.608;2023-06-19T11:53:20;29.20;99.90
23991;DHT22;12205;50.600;4.608;2023-06-19T11:55:47;29.30;99.90
23991;DHT22;12205;50.600;4.608;2023-06-19T11:58:15;29.80;99.90
23991;DHT22;12205;50.600;4.608;2023-06-19T12:00:42;30.10;99.90
23991;DHT22;12205;50.600;4.608;2023-06-19T12:03:10;30.20;99.90
23991;DHT22;12205;50.600;4.608;2023-06-19T12:05:37;30.40;99.90
23991;DHT22;12205;50.600;4.608;2023-06-19T12:08:05;30.90;99.90
23991;DHT22;12205;50.600;4.608;2023-06-19T12:10:34;31.30;99.90
23991;DHT22;12205;50.600;4.608;2023-06-19T12:13:01;31.20;99.90
23991;DHT22;12205;50.600;4.608;2023-06-19T12:15:29;31.40;99.90
23991;DHT22;12205;50.600;4.608;2023-06-19T12:17:56;31.50;99.90
23991;DHT22;12205;50.600;4.608;2023-06-19T12:20:24;31.70;99.90
23991;DHT22;12205;50.600;4.608;2023-06-19T12:22:51;31.90;99.90
23991;DHT22;12205;50.600;4.608;2023-06-19T12:25:18;31.70;99.90
23991;DHT22;12205;50.600;4.608;2023-06-19T12:27:47;32.20;99.90
23991;DHT22;12205;50.600;4.608;2023-06-19T12:30:15;32.80;99.90
23991;DHT22;12205;50.600;4.608;2023-06-19T12:32:42;33.10;98.40
23991;DHT22;12205;50.600;4.608;2023-06-19T12:35:09;33.30;97.10
23991;DHT22;12205;50.600;4.608;2023-06-19T12:37:36;33.70;96.80
23991;DHT22;12205;50.600;4.608;2023-06-19T12:40:05;34.20;96.60
23991;DHT22;12205;50.600;4.608;2023-06-19T12:42:35;34.80;96.70
23991;DHT22;12205;50.600;4.608;2023-06-19T12:45:05;35.40;95.00
23991;DHT22;12205;50.600;4.608;2023-06-19T12:47:33;35.50;93.10
23991;DHT22;12205;50.600;4.608;2023-06-19T12:50:00;35.80;92.20
23991;DHT22;12205;50.600;4.608;2023-06-19T12:52:27;36.00;90.40
23991;DHT22;12205;50.600;4.608;2023-06-19T12:54:54;35.70;88.40
23991;DHT22;12205;50.600;4.608;2023-06-19T12:57:21;35.30;87.70
23991;DHT22;12205;50.600;4.608;2023-06-19T12:59:48;35.20;89.90
23991;DHT22;12205;50.600;4.608;2023-06-19T13:02:17;35.20;88.50
23991;DHT22;12205;50.600;4.608;2023-06-19T13:04:44;35.30;85.80
23991;DHT22;12205;50.600;4.608;2023-06-19T13:07:11;35.60;85.50
23991;DHT22;12205;50.600;4.608;2023-06-19T13:09:38;35.80;83.20
23991;DHT22;12205;50.600;4.608;2023-06-19T13:12:06;35.90;85.10
23991;DHT22;12205;50.600;4.608;2023-06-19T13:14:34;35.70;82.40
23991;DHT22;12205;50.600;4.608;2023-06-19T13:17:01;35.70;82.30
23991;DHT22;12205;50.600;4.608;2023-06-19T13:19:30;36.10;83.00
23991;DHT22;12205;50.600;4.608;2023-06-19T13:21:57;36.50;82.50
23991;DHT22;12205;50.600;4.608;2023-06-19T13:24:24;37.00;79.00
23991;DHT22;12205;50.600;4.608;2023-06-19T13:26:53;37.50;78.40
23991;DHT22;12205;50.600;4.608;2023-06-19T13:29:20;37.30;73.00
23991;DHT22;12205;50.600;4.608;2023-06-19T13:31:47;37.40;73.90
23991;DHT22;12205;50.600;4.608;2023-06-19T13:34:14;37.40;71.50
23991;DHT22;12205;50.600;4.608;2023-06-19T13:36:45;37.50;73.80
23991;DHT22;12205;50.600;4.608;2023-06-19T13:39:13;37.80;70.80
23991;DHT22;12205;50.600;4.608;2023-06-19T13:41:40;38.00;70.00
23991;DHT22;12205;50.600;4.608;2023-06-19T13:44:07;38.20;70.20
23991;DHT22;12205;50.600;4.608;2023-06-19T13:46:35;38.30;67.30
23991;DHT22;12205;50.600;4.608;2023-06-19T13:49:02;38.50;67.40
23991;DHT22;12205;50.600;4.608;2023-06-19T13:51:29;38.80;66.60
23991;DHT22;12205;50.600;4.608;2023-06-19T13:53:57;38.70;65.80
23991;DHT22;12205;50.600;4.608;2023-06-19T13:56:24;38.30;67.30
23991;DHT22;12205;50.600;4.608;2023-06-19T13:58:51;37.70;66.30
23991;DHT22;12205;50.600;4.608;2023-06-19T14:01:18;36.50;67.30
23991;DHT22;12205;50.600;4.608;2023-06-19T14:03:46;36.50;69.10
23991;DHT22;12205;50.600;4.608;2023-06-19T14:06:13;36.30;69.00
23991;DHT22;12205;50.600;4.608;2023-06-19T14:08:40;36.20;69.10
23991;DHT22;12205;50.600;4.608;2023-06-19T14:11:08;36.10;69.40
23991;DHT22;12205;50.600;4.608;2023-06-19T14:13:35;36.00;69.60
23991;DHT22;12205;50.600;4.608;2023-06-19T14:16:03;35.90;69.00
23991;DHT22;12205;50.600;4.608;2023-06-19T14:18:30;36.00;70.20
23991;DHT22;12205;50.600;4.608;2023-06-19T14:20:57;36.30;68.10
23991;DHT22;12205;50.600;4.608;2023-06-19T14:23:24;36.40;68.40
23991;DHT22;12205;50.600;4.608;2023-06-19T14:25:51;36.70;68.10
23991;DHT22;12205;50.600;4.608;2023-06-19T14:28:20;36.30;67.50
23991;DHT22;12205;50.600;4.608;2023-06-19T14:30:47;36.00;68.60
23991;DHT22;12205;50.600;4.608;2023-06-19T14:33:14;35.90;70.10
23991;DHT22;12205;50.600;4.608;2023-06-19T14:35:41;36.00;68.10
23991;DHT22;12205;50.600;4.608;2023-06-19T14:38:11;35.40;67.40
23991;DHT22;12205;50.600;4.608;2023-06-19T14:40:39;35.50;69.90
23991;DHT22;12205;50.600;4.608;2023-06-19T14:43:06;35.70;66.90
23991;DHT22;12205;50.600;4.608;2023-06-19T14:45:36;35.90;68.20
23991;DHT22;12205;50.600;4.608;2023-06-19T14:48:05;35.80;69.80
23991;DHT22;12205;50.600;4.608;2023-06-19T14:50:32;35.70;69.10
23991;DHT22;12205;50.600;4.608;2023-06-19T14:53:00;36.10;69.50
23991;DHT22;12205;50.600;4.608;2023-06-19T14:55:28;36.20;67.90
23991;DHT22;12205;50.600;4.608;2023-06-19T14:57:55;35.90;66.90
23991;DHT22;12205;50.600;4.608;2023-06-19T15:00:22;35.70;65.80
23991;DHT22;12205;50.600;4.608;2023-06-19T15:02:50;35.70;66.70
23991;DHT22;12205;50.600;4.608;2023-06-19T15:05:17;35.90;68.10
23991;DHT22;12205;50.600;4.608;2023-06-19T15:07:45;36.30;66.10
23991;DHT22;12205;50.600;4.608;2023-06-19T15:10:12;36.50;65.20
23991;DHT22;12205;50.600;4.608;2023-06-19T15:12:39;36.70;65.80
23991;DHT22;12205;50.600;4.608;2023-06-19T15:15:07;36.70;65.00
23991;DHT22;12205;50.600;4.608;2023-06-19T15:17:34;36.70;64.50
23991;DHT22;12205;50.600;4.608;2023-06-19T15:20:04;36.70;65.10
23991;DHT22;12205;50.600;4.608;2023-06-19T15:22:33;36.70;65.50
23991;DHT22;12205;50.600;4.608;2023-06-19T15:25:02;36.30;64.70
23991;DHT22;12205;50.600;4.608;2023-06-19T15:27:29;36.00;65.60
23991;DHT22;12205;50.600;4.608;2023-06-19T15:29:56;35.70;66.30
23991;DHT22;12205;50.600;4.608;2023-06-19T15:32:23;34.90;65.90
23991;DHT22;12205;50.600;4.608;2023-06-19T15:34:50;34.60;67.50
23991;DHT22;12205;50.600;4.608;2023-06-19T15:37:19;34.30;68.20